createdAt,value
2022-08-03T00:01:30.526Z,6.07
2022-08-03T00:03:35.107Z,5.80
2022-08-03T00:05:40.193Z,5.30
2022-08-03T00:08:06.136Z,6.10
2022-08-03T00:10:11.352Z,5.78
2022-08-03T00:12:15.875Z,5.55
2022-08-03T00:14:20.307Z,6.78
2022-08-03T00:16:25.250Z,5.68
2022-08-03T00:18:29.499Z,5.63
2022-08-03T00:20:33.910Z,6.13
2022-08-03T00:22:38.127Z,6.47
2022-08-03T00:24:43.678Z,7.68
2022-08-03T00:26:47.938Z,6.85
2022-08-03T00:28:52.148Z,7.38
2022-08-03T00:30:56.910Z,7.18
2022-08-03T00:33:01.449Z,6.63
2022-08-03T00:35:08.386Z,6.40
2022-08-03T00:37:14.012Z,5.90
2022-08-03T00:39:18.229Z,6.38
2022-08-03T00:41:23.876Z,6.53
2022-08-03T00:43:28.422Z,6.68
2022-08-03T00:45:34.229Z,5.97
2022-08-03T00:47:38.445Z,6.13
2022-08-03T00:49:43.283Z,6.00
2022-08-03T00:51:48.150Z,6.32
2022-08-03T00:53:52.844Z,6.43
2022-08-03T00:55:58.938Z,5.90
2022-08-03T00:58:06.729Z,6.25
2022-08-03T01:00:13.349Z,6.38
2022-08-03T01:02:17.680Z,6.20
2022-08-03T01:04:22.053Z,6.28
2022-08-03T01:06:35.037Z,6.00
2022-08-03T01:08:47.789Z,6.38
2022-08-03T01:11:04.276Z,5.43
2022-08-03T01:14:03.650Z,5.97
2022-08-03T01:15:53.640Z,5.97
2022-08-03T01:18:00.765Z,5.97
2022-08-03T01:20:09.676Z,7.00
2022-08-03T01:22:33.234Z,6.57
2022-08-03T01:25:18.840Z,6.70
2022-08-03T01:27:27.248Z,6.70
2022-08-03T01:30:03.560Z,6.03
2022-08-03T01:32:59.469Z,5.93
2022-08-03T01:34:43.858Z,6.25
2022-08-03T01:36:54.944Z,6.47
2022-08-03T01:39:02.436Z,5.95
2022-08-03T01:41:10.011Z,5.90
2022-08-03T01:44:26.486Z,6.25
2022-08-03T01:45:47.311Z,5.90
2022-08-03T01:47:53.066Z,5.78
2022-08-03T01:49:59.279Z,6.22
2022-08-03T01:52:05.551Z,6.57
2022-08-03T01:54:12.438Z,7.25
2022-08-03T01:56:19.456Z,6.50
2022-08-03T01:58:25.860Z,6.63
2022-08-03T02:00:31.066Z,7.50
2022-08-03T02:02:38.563Z,6.65
2022-08-03T02:04:44.933Z,6.28
2022-08-03T02:07:01.651Z,6.13
2022-08-03T02:09:07.907Z,6.43
2022-08-03T02:11:13.760Z,6.68
2022-08-03T02:13:20.669Z,6.80
2022-08-03T02:15:26.073Z,6.30
2022-08-03T02:17:38.938Z,6.03
2022-08-03T02:19:46.705Z,6.15
2022-08-03T02:21:56.602Z,5.80
2022-08-03T02:24:06.795Z,5.97
2022-08-03T02:26:15.867Z,6.18
2022-08-03T02:28:22.167Z,5.93
2022-08-03T02:30:37.078Z,6.55
2022-08-03T02:32:43.861Z,6.30
2022-08-03T02:34:52.797Z,7.43
2022-08-03T02:37:01.434Z,6.25
2022-08-03T02:39:06.180Z,5.97
2022-08-03T02:41:16.047Z,5.53
2022-08-03T02:45:28.226Z,6.10
2022-08-03T02:47:53.144Z,5.85
2022-08-03T02:50:02.949Z,6.50
2022-08-03T02:52:13.246Z,5.65
2022-08-03T02:54:21.184Z,6.35
2022-08-03T02:56:26.861Z,5.68
2022-08-03T02:58:32.523Z,5.40
2022-08-03T03:00:37.939Z,6.63
2022-08-03T03:02:44.490Z,6.03
2022-08-03T03:05:52.106Z,5.93
2022-08-03T03:07:19.817Z,6.15
2022-08-03T03:09:24.917Z,6.30
2022-08-03T03:11:45.420Z,5.93
2022-08-03T03:13:50.991Z,6.07
2022-08-03T03:15:56.154Z,6.07
2022-08-03T03:18:02.375Z,5.68
2022-08-03T03:20:08.952Z,5.90
2022-08-03T03:22:15.363Z,6.13
2022-08-03T03:24:21.969Z,5.75
2022-08-03T03:26:26.355Z,6.50
2022-08-03T03:28:31.768Z,5.75
2022-08-03T03:30:36.152Z,6.00
2022-08-03T03:32:41.143Z,5.68
2022-08-03T03:34:46.059Z,6.28
2022-08-03T03:36:51.735Z,6.13
2022-08-03T03:38:58.252Z,5.70
2022-08-03T03:41:04.474Z,5.60
2022-08-03T03:43:10.107Z,5.50
2022-08-03T03:45:14.813Z,5.90
2022-08-03T03:47:32.427Z,5.97
2022-08-03T03:49:38.087Z,5.47
2022-08-03T03:51:42.272Z,6.68
2022-08-03T03:53:59.913Z,5.72
2022-08-03T03:56:05.888Z,5.75
2022-08-03T03:58:10.374Z,6.47
2022-08-03T04:00:16.355Z,5.72
2022-08-03T04:02:20.545Z,5.40
2022-08-03T04:04:41.949Z,5.72
2022-08-03T04:07:03.577Z,6.28
2022-08-03T04:09:27.597Z,6.55
2022-08-03T04:11:39.752Z,6.10
2022-08-03T04:13:48.655Z,5.38
2022-08-03T04:15:54.161Z,6.30
2022-08-03T04:18:00.242Z,7.53
2022-08-03T04:20:05.813Z,7.72
2022-08-03T04:22:13.568Z,8.57
2022-08-03T04:24:19.058Z,7.80
2022-08-03T04:26:26.852Z,7.63
2022-08-03T04:28:33.652Z,7.38
2022-08-03T04:30:39.985Z,7.70
2022-08-03T04:32:50.926Z,7.45
2022-08-03T04:34:56.142Z,7.55
2022-08-03T04:37:03.043Z,7.22
2022-08-03T04:39:10.326Z,6.80
2022-08-03T04:41:15.341Z,7.22
2022-08-03T04:43:20.661Z,7.68
2022-08-03T04:45:27.166Z,6.97
2022-08-03T04:47:33.670Z,7.22
2022-08-03T04:49:38.984Z,7.38
2022-08-03T04:51:43.684Z,7.65
2022-08-03T04:53:48.006Z,6.75
2022-08-03T04:55:52.240Z,6.53
2022-08-03T04:57:56.437Z,7.90
2022-08-03T05:00:03.333Z,7.20
2022-08-03T05:02:12.165Z,7.28
2022-08-03T05:04:16.485Z,6.93
2022-08-03T05:06:20.699Z,7.90
2022-08-03T05:08:29.485Z,7.70
2022-08-03T05:10:33.679Z,8.05
2022-08-03T05:12:37.995Z,7.25
2022-08-03T05:14:42.158Z,7.30
2022-08-03T05:16:46.359Z,7.90
2022-08-03T05:18:51.883Z,7.32
2022-08-03T05:20:56.133Z,8.60
2022-08-03T05:23:01.616Z,8.57
2022-08-03T05:25:06.649Z,8.50
2022-08-03T05:27:17.458Z,8.02
2022-08-03T05:29:21.923Z,9.73
2022-08-03T05:31:26.074Z,9.07
2022-08-03T05:33:30.305Z,7.50
2022-08-03T05:35:57.883Z,8.65
2022-08-03T05:38:00.422Z,7.57
2022-08-03T05:40:05.341Z,7.72
2022-08-03T05:42:10.682Z,6.32
2022-08-03T05:44:15.018Z,6.57
2022-08-03T05:46:19.364Z,6.45
2022-08-03T05:48:23.486Z,6.90
2022-08-03T05:50:27.660Z,6.70
2022-08-03T05:52:33.297Z,6.43
2022-08-03T05:54:55.619Z,6.00
2022-08-03T05:57:01.294Z,6.10
2022-08-03T05:59:22.700Z,4.90
2022-08-03T06:01:31.804Z,4.55
2022-08-03T06:03:36.093Z,4.72
2022-08-03T06:05:43.436Z,5.32
2022-08-03T06:08:01.220Z,5.32
2022-08-03T06:10:36.610Z,5.07
2022-08-03T06:12:31.227Z,5.25
2022-08-03T06:14:35.432Z,5.15
2022-08-03T06:16:39.649Z,5.03
2022-08-03T06:18:44.035Z,5.97
2022-08-03T06:20:49.569Z,5.20
2022-08-03T06:23:00.386Z,5.43
2022-08-03T06:25:10.248Z,5.80
2022-08-03T06:27:17.410Z,4.63
2022-08-03T06:29:21.666Z,5.07
2022-08-03T06:31:33.174Z,5.25
2022-08-03T06:34:31.218Z,5.13
2022-08-03T06:36:02.466Z,5.38
2022-08-03T06:38:06.824Z,5.10
2022-08-03T06:40:14.144Z,5.68
2022-08-03T06:42:18.590Z,6.95
2022-08-03T06:44:25.008Z,5.57
2022-08-03T06:46:29.257Z,5.43
2022-08-03T06:48:33.620Z,5.13
2022-08-03T06:50:39.654Z,4.85
2022-08-03T06:52:43.827Z,4.80
2022-08-03T06:54:48.159Z,5.25
2022-08-03T06:56:53.751Z,5.57
2022-08-03T06:58:57.987Z,5.38
2022-08-03T07:01:02.492Z,7.68
2022-08-03T07:03:06.782Z,8.57
2022-08-03T07:05:17.083Z,7.68
2022-08-03T07:07:21.577Z,4.82
2022-08-03T07:09:26.901Z,4.95
2022-08-03T07:11:31.077Z,4.90
2022-08-03T07:13:36.662Z,4.72
2022-08-03T07:15:55.684Z,4.90
2022-08-03T07:20:07.799Z,4.60
2022-08-03T07:22:11.996Z,5.00
2022-08-03T07:24:16.308Z,4.85
2022-08-03T07:26:20.709Z,5.30
2022-08-03T07:28:25.026Z,4.85
2022-08-03T07:30:30.788Z,4.72
2022-08-03T07:32:35.601Z,4.63
2022-08-03T07:34:58.466Z,4.38
2022-08-03T07:37:04.641Z,4.82
2022-08-03T07:39:15.354Z,4.18
2022-08-03T07:41:22.355Z,4.43
2022-08-03T07:43:26.527Z,4.60
2022-08-03T07:45:33.302Z,4.53
2022-08-03T07:47:37.605Z,4.45
2022-08-03T07:49:42.519Z,4.00
2022-08-03T07:52:06.766Z,4.10
2022-08-03T07:54:11.335Z,4.38
2022-08-03T07:56:17.024Z,3.70
2022-08-03T07:58:24.350Z,5.45
2022-08-03T08:00:28.866Z,4.05
2022-08-03T08:02:34.464Z,4.00
2022-08-03T08:04:38.714Z,4.13
2022-08-03T08:06:42.875Z,3.97
2022-08-03T08:08:48.111Z,3.72
2022-08-03T08:10:58.299Z,3.70
2022-08-03T08:13:03.121Z,3.95
2022-08-03T08:15:09.796Z,4.43
2022-08-03T08:17:14.013Z,3.65
2022-08-03T08:19:19.666Z,4.50
2022-08-03T08:21:26.277Z,3.95
2022-08-03T08:23:56.934Z,3.85
2022-08-03T08:26:02.099Z,4.20
2022-08-03T08:28:29.459Z,3.65
2022-08-03T08:30:34.421Z,4.00
2022-08-03T08:32:39.565Z,3.95
2022-08-03T08:34:45.310Z,4.10
2022-08-03T08:36:49.567Z,3.70
2022-08-03T08:38:53.864Z,4.07
2022-08-03T08:40:58.574Z,4.25
2022-08-03T08:43:04.228Z,4.05
2022-08-03T08:45:09.825Z,4.40
2022-08-03T08:47:15.425Z,4.00
2022-08-03T08:49:29.051Z,3.78
2022-08-03T08:51:50.999Z,3.60
2022-08-03T08:54:04.347Z,4.20
2022-08-03T08:56:13.041Z,3.83
2022-08-03T08:58:20.974Z,4.30
2022-08-03T09:00:25.519Z,4.40
2022-08-03T09:02:32.091Z,4.15
2022-08-03T09:04:36.440Z,3.92
2022-08-03T09:06:53.706Z,4.35
2022-08-03T09:09:08.335Z,4.68
2022-08-03T09:11:12.876Z,4.20
2022-08-03T09:13:17.487Z,4.10
2022-08-03T09:15:24.545Z,4.32
2022-08-03T09:17:41.679Z,3.97
2022-08-03T09:20:04.504Z,4.40
2022-08-03T09:22:13.248Z,4.15
2022-08-03T09:24:40.617Z,4.40
2022-08-03T09:26:54.097Z,4.63
2022-08-03T09:29:05.677Z,4.93
2022-08-03T09:31:13.879Z,4.45
2022-08-03T09:33:18.047Z,3.97
2022-08-03T09:35:51.767Z,4.93
2022-08-03T09:38:12.869Z,4.30
2022-08-03T09:40:36.529Z,4.35
2022-08-03T09:42:57.968Z,4.63
2022-08-03T09:45:02.413Z,4.50
2022-08-03T09:47:08.256Z,4.28
2022-08-03T09:49:13.860Z,4.22
2022-08-03T09:52:30.277Z,3.88
2022-08-03T09:53:57.001Z,4.00
2022-08-03T09:56:33.753Z,4.22
2022-08-03T09:58:31.047Z,4.22
2022-08-03T10:00:55.322Z,4.82
2022-08-03T10:03:06.384Z,4.45
2022-08-03T10:05:19.611Z,3.97
2022-08-03T10:07:25.895Z,4.80
2022-08-03T10:09:31.614Z,4.15
2022-08-03T10:11:40.826Z,3.83
2022-08-03T10:13:45.943Z,3.40
2022-08-03T10:16:22.504Z,4.40
2022-08-03T10:18:15.200Z,3.65
2022-08-03T10:20:19.702Z,3.90
2022-08-03T10:22:25.702Z,4.32
2022-08-03T10:24:35.422Z,4.32
2022-08-03T10:26:50.008Z,4.03
2022-08-03T10:28:57.154Z,4.32
2022-08-03T10:31:01.662Z,4.05
2022-08-03T10:33:50.099Z,4.57
2022-08-03T10:35:38.803Z,3.72
2022-08-03T10:37:56.735Z,4.03
2022-08-03T10:40:05.008Z,3.85
2022-08-03T10:42:14.580Z,4.00
2022-08-03T10:44:21.396Z,4.70
2022-08-03T10:46:27.196Z,4.18
2022-08-03T10:48:32.574Z,4.80
2022-08-03T10:50:37.108Z,3.75
2022-08-03T10:52:56.543Z,4.22
2022-08-03T10:55:20.683Z,4.07
2022-08-03T10:57:46.437Z,4.00
2022-08-03T11:00:00.670Z,4.07
2022-08-03T11:02:08.361Z,3.75
2022-08-03T11:04:20.827Z,4.38
2022-08-03T11:06:26.331Z,3.95
2022-08-03T11:08:32.423Z,4.18
2022-08-03T11:10:38.131Z,4.10
2022-08-03T11:12:44.211Z,3.97
2022-08-03T11:14:49.533Z,3.90
2022-08-03T11:17:14.449Z,4.03
2022-08-03T11:19:22.672Z,4.22
2022-08-03T11:21:57.132Z,3.97
2022-08-03T11:24:02.704Z,4.35
2022-08-03T11:26:15.856Z,3.92
2022-08-03T11:28:27.799Z,4.32
2022-08-03T11:30:32.508Z,4.32
2022-08-03T11:32:59.180Z,3.95
2022-08-03T11:35:10.933Z,4.00
2022-08-03T11:37:31.397Z,3.90
2022-08-03T11:39:40.606Z,4.03
2022-08-03T11:41:46.189Z,3.60
2022-08-03T11:43:50.523Z,3.90
2022-08-03T11:45:59.851Z,3.30
2022-08-03T11:48:17.525Z,3.92
2022-08-03T11:50:22.628Z,3.92
2022-08-03T11:52:28.999Z,3.85
2022-08-03T11:54:33.450Z,3.83
2022-08-03T11:56:49.538Z,4.00
2022-08-03T11:59:15.144Z,4.32
2022-08-03T12:01:23.096Z,3.75
2022-08-03T12:03:34.671Z,3.70
2022-08-03T12:05:42.235Z,3.80
2022-08-03T12:08:03.862Z,3.63
2022-08-03T12:10:11.593Z,3.28
2022-08-03T12:12:19.372Z,3.40
2022-08-03T12:14:48.637Z,3.88
2022-08-03T12:16:49.568Z,3.53
2022-08-03T12:18:57.621Z,3.47
2022-08-03T12:21:08.025Z,3.22
2022-08-03T12:23:14.311Z,3.55
2022-08-03T12:25:26.987Z,3.33
2022-08-03T12:27:45.509Z,3.05
2022-08-03T12:29:58.649Z,3.40
2022-08-03T12:32:03.715Z,3.53
2022-08-03T12:34:09.265Z,3.63
2022-08-03T12:36:13.477Z,3.25
2022-08-03T12:38:23.013Z,3.55
2022-08-03T12:40:28.456Z,3.22
2022-08-03T12:42:35.007Z,3.63
2022-08-03T12:44:41.478Z,3.40
2022-08-03T12:46:48.114Z,2.85
2022-08-03T12:49:07.052Z,3.47
2022-08-03T12:51:12.323Z,3.20
2022-08-03T12:53:31.269Z,2.80
2022-08-03T12:55:56.415Z,3.25
2022-08-03T12:58:02.314Z,3.20
2022-08-03T13:00:21.466Z,3.10
2022-08-03T13:02:33.790Z,3.00
2022-08-03T13:04:38.689Z,3.05
2022-08-03T13:06:42.915Z,3.08
2022-08-03T13:08:48.428Z,3.25
2022-08-03T13:10:53.265Z,3.80
2022-08-03T13:13:00.280Z,3.00
2022-08-03T13:15:04.664Z,3.35
2022-08-03T13:17:10.667Z,3.67
2022-08-03T13:19:15.399Z,3.55
2022-08-03T13:21:21.112Z,3.42
2022-08-03T13:23:25.400Z,3.10
2022-08-03T13:25:29.833Z,3.42
2022-08-03T13:28:03.828Z,3.40
2022-08-03T13:29:58.983Z,3.75
2022-08-03T13:32:03.376Z,3.25
2022-08-03T13:34:09.520Z,3.42
2022-08-03T13:36:13.781Z,3.30
2022-08-03T13:38:18.167Z,3.33
2022-08-03T13:40:30.135Z,3.83
2022-08-03T13:42:36.897Z,3.10
2022-08-03T13:44:41.457Z,3.67
2022-08-03T13:46:45.743Z,3.25
2022-08-03T13:48:49.993Z,3.08
2022-08-03T13:50:55.642Z,3.40
2022-08-03T13:53:00.089Z,3.25
2022-08-03T13:55:06.656Z,3.22
2022-08-03T13:58:02.299Z,3.20
2022-08-03T13:59:36.033Z,3.13
2022-08-03T14:01:55.042Z,3.42
2022-08-03T14:03:59.992Z,3.75
2022-08-03T14:06:05.804Z,3.88
2022-08-03T14:08:10.041Z,3.38
2022-08-03T14:10:15.086Z,3.30
2022-08-03T14:12:19.322Z,3.13
2022-08-03T14:14:23.640Z,3.22
2022-08-03T14:16:30.539Z,3.00
2022-08-03T14:18:37.491Z,3.33
2022-08-03T14:20:50.136Z,2.78
2022-08-03T14:23:00.342Z,2.70
2022-08-03T14:25:04.760Z,2.90
2022-08-03T14:27:15.172Z,2.90
2022-08-03T14:29:19.453Z,2.60
2022-08-03T14:32:10.876Z,2.80
2022-08-03T14:33:48.967Z,2.90
2022-08-03T14:35:54.096Z,2.70
2022-08-03T14:37:59.737Z,3.17
2022-08-03T14:40:04.165Z,4.07
2022-08-03T14:42:08.797Z,3.75
2022-08-03T14:44:13.020Z,2.90
2022-08-03T14:46:17.420Z,3.53
2022-08-03T14:50:34.712Z,2.90
2022-08-03T14:50:51.067Z,2.63
2022-08-03T14:52:56.117Z,2.83
2022-08-03T14:55:02.196Z,2.85
2022-08-03T14:57:08.179Z,3.30
2022-08-03T14:59:12.471Z,3.72
2022-08-03T15:02:04.849Z,2.92
2022-08-03T15:03:41.248Z,3.03
2022-08-03T15:05:47.251Z,2.92
2022-08-03T15:07:51.636Z,3.13
2022-08-03T15:09:55.877Z,3.00
2022-08-03T15:12:01.878Z,3.17
2022-08-03T15:14:09.131Z,3.50
2022-08-03T15:16:13.883Z,3.35
2022-08-03T15:18:18.345Z,3.15
2022-08-03T15:20:39.342Z,3.63
2022-08-03T15:22:46.930Z,3.67
2022-08-03T15:24:51.385Z,3.10
2022-08-03T15:26:55.594Z,8.45
2022-08-03T15:29:01.314Z,7.55
2022-08-03T15:31:05.707Z,6.90
2022-08-03T15:33:09.963Z,3.97
2022-08-03T15:35:14.255Z,3.70
2022-08-03T15:37:18.472Z,3.20
2022-08-03T15:39:22.701Z,3.42
2022-08-03T15:41:27.500Z,2.92
2022-08-03T15:43:31.648Z,3.35
2022-08-03T15:45:37.667Z,3.03
2022-08-03T15:47:41.856Z,3.60
2022-08-03T15:49:46.061Z,3.13
2022-08-03T15:51:50.255Z,3.13
2022-08-03T15:53:54.522Z,3.22
2022-08-03T15:55:58.793Z,3.50
2022-08-03T15:59:09.842Z,3.70
2022-08-03T16:00:33.508Z,2.78
2022-08-03T16:02:40.178Z,3.55
2022-08-03T16:04:44.394Z,3.38
2022-08-03T16:06:48.669Z,3.38
2022-08-03T16:08:52.915Z,3.10
2022-08-03T16:10:57.128Z,3.53
2022-08-03T16:13:03.572Z,3.20
2022-08-03T16:15:09.222Z,3.40
2022-08-03T16:17:13.444Z,3.40
2022-08-03T16:19:19.139Z,3.40
2022-08-03T16:21:23.399Z,3.63
2022-08-03T16:23:31.623Z,3.75
2022-08-03T16:25:38.386Z,3.42
2022-08-03T16:28:03.162Z,3.80
2022-08-03T16:30:09.692Z,3.42
2022-08-03T16:32:14.053Z,3.38
2022-08-03T16:34:19.903Z,3.92
2022-08-03T16:36:24.220Z,3.58
2022-08-03T16:38:28.537Z,3.40
2022-08-03T16:40:33.690Z,3.90
2022-08-03T16:42:38.555Z,4.00
2022-08-03T16:44:43.111Z,3.40
2022-08-03T16:46:47.669Z,3.75
2022-08-03T16:48:51.964Z,4.50
2022-08-03T16:50:57.615Z,5.28
2022-08-03T16:53:03.687Z,4.50
2022-08-03T16:55:09.902Z,4.25
2022-08-03T16:57:15.206Z,4.30
2022-08-03T16:59:19.619Z,4.93
2022-08-03T17:01:41.588Z,3.78
2022-08-03T17:04:01.646Z,4.10
2022-08-03T17:06:09.859Z,3.42
2022-08-03T17:08:14.297Z,3.78
2022-08-03T17:10:21.966Z,3.90
2022-08-03T17:12:31.418Z,3.00
2022-08-03T17:14:35.709Z,3.13
2022-08-03T17:16:52.215Z,2.95
2022-08-03T17:18:58.600Z,3.25
2022-08-03T17:21:11.523Z,3.10
2022-08-03T17:23:34.589Z,3.33
2022-08-03T17:26:01.751Z,2.67
2022-08-03T17:28:49.290Z,3.75
2022-08-03T17:30:45.499Z,3.28
2022-08-03T17:35:02.587Z,3.50
2022-08-03T17:37:27.200Z,2.90
2022-08-03T17:42:05.464Z,2.63
2022-08-03T17:44:39.927Z,3.35
2022-08-03T17:46:51.505Z,2.53
2022-08-03T17:48:58.973Z,3.25
2022-08-03T17:51:08.327Z,3.03
2022-08-03T17:53:25.330Z,2.85
2022-08-03T17:55:55.632Z,2.60
2022-08-03T17:58:03.331Z,2.63
2022-08-03T18:00:23.279Z,2.85
2022-08-03T18:02:55.049Z,2.45
2022-08-03T18:05:16.305Z,2.92
2022-08-03T18:07:24.328Z,2.97
2022-08-03T18:10:06.730Z,3.25
2022-08-03T18:12:19.873Z,2.72
2022-08-03T18:14:33.487Z,2.97
2022-08-03T18:16:46.746Z,2.70
2022-08-03T18:18:55.240Z,2.70
2022-08-03T18:21:06.420Z,3.15
2022-08-03T18:23:24.970Z,3.20
2022-08-03T18:25:45.606Z,2.85
2022-08-03T18:27:55.470Z,2.70
2022-08-03T18:30:01.703Z,2.38
2022-08-03T18:32:16.732Z,2.88
2022-08-03T18:34:32.463Z,2.95
2022-08-03T18:36:38.972Z,3.72
2022-08-03T18:38:44.023Z,3.10
2022-08-03T18:40:52.783Z,2.83
2022-08-03T18:42:57.182Z,3.00
2022-08-03T18:45:54.944Z,3.47
2022-08-03T18:47:51.651Z,3.38
2022-08-03T18:50:08.887Z,3.67
2022-08-03T18:52:18.345Z,3.38
2022-08-03T18:54:45.749Z,3.40
2022-08-03T18:56:55.676Z,3.67
2022-08-03T18:59:05.606Z,3.60
2022-08-03T19:01:59.622Z,3.40
2022-08-03T19:03:48.348Z,3.38
2022-08-03T19:06:02.624Z,3.95
2022-08-03T19:08:18.336Z,3.33
2022-08-03T19:10:27.856Z,3.80
2022-08-03T19:12:39.582Z,3.05
2022-08-03T19:14:47.863Z,4.15
2022-08-03T19:16:57.777Z,3.40
2022-08-03T19:21:15.445Z,3.20
2022-08-03T19:23:24.389Z,3.22
2022-08-03T19:25:35.078Z,3.38
2022-08-03T19:28:11.349Z,3.17
2022-08-03T19:30:32.255Z,3.30
2022-08-03T19:32:37.017Z,3.40
2022-08-03T19:34:42.083Z,3.20
2022-08-03T19:38:56.762Z,3.38
2022-08-03T19:41:07.454Z,3.42
2022-08-03T19:43:21.910Z,3.63
2022-08-03T19:46:06.189Z,3.20
2022-08-03T19:48:09.878Z,3.50
2022-08-03T19:50:14.676Z,3.33
2022-08-03T19:52:24.371Z,3.20
2022-08-03T19:57:04.811Z,3.40
2022-08-03T20:04:02.503Z,3.40
2022-08-03T20:06:07.329Z,3.20
2022-08-03T20:08:11.802Z,3.70
2022-08-03T20:10:16.775Z,3.28
2022-08-03T20:12:28.254Z,3.20
2022-08-03T20:14:34.847Z,3.58
2022-08-03T20:16:39.112Z,3.95
2022-08-03T20:18:43.419Z,3.75
2022-08-03T20:20:51.655Z,3.13
2022-08-03T20:22:58.393Z,3.08
2022-08-03T20:25:09.265Z,3.60
2022-08-03T20:27:18.674Z,3.28
2022-08-03T20:29:42.595Z,3.83
2022-08-03T20:31:56.504Z,3.22
2022-08-03T20:34:01.699Z,3.42
2022-08-03T20:36:07.028Z,3.10
2022-08-03T20:38:14.836Z,3.00
2022-08-03T20:40:20.348Z,3.50
2022-08-03T20:42:24.856Z,3.40
2022-08-03T20:44:29.503Z,3.67
2022-08-03T20:49:00.070Z,3.38
2022-08-03T20:51:19.339Z,3.00
2022-08-03T20:53:57.374Z,2.97
2022-08-03T20:56:02.449Z,3.95
2022-08-03T20:58:07.892Z,3.38
2022-08-03T21:00:13.765Z,3.60
2022-08-03T21:02:19.613Z,3.08
2022-08-03T21:04:34.306Z,4.13
2022-08-03T21:06:45.761Z,3.90
2022-08-03T21:09:05.315Z,3.08
2022-08-03T21:11:17.415Z,3.00
2022-08-03T21:13:09.042Z,3.45
2022-08-03T21:13:09.324Z,3.42
2022-08-03T21:13:12.958Z,3.78
2022-08-03T21:13:25.810Z,3.33
2022-08-03T21:16:06.614Z,2.97
2022-08-03T21:17:57.655Z,3.67
2022-08-03T21:20:09.324Z,3.50
2022-08-03T21:22:15.753Z,4.93
2022-08-03T21:24:24.686Z,6.18
2022-08-03T21:26:33.278Z,4.30
2022-08-03T21:28:39.225Z,3.80
2022-08-03T21:30:43.721Z,3.72
2022-08-03T21:32:49.389Z,3.88
2022-08-03T21:34:53.974Z,2.92
2022-08-03T21:36:59.738Z,3.70
2022-08-03T21:39:06.456Z,3.45
2022-08-03T21:41:11.992Z,3.65
2022-08-03T21:43:16.332Z,3.80
2022-08-03T21:45:20.518Z,3.10
2022-08-03T21:47:25.630Z,3.75
2022-08-03T21:50:02.694Z,3.30
2022-08-03T21:52:04.314Z,3.65
2022-08-03T21:54:08.711Z,3.17
2022-08-03T21:56:14.459Z,3.33
2022-08-03T21:58:21.412Z,3.35
2022-08-03T22:00:25.714Z,3.60
2022-08-03T22:02:32.344Z,3.65
2022-08-03T22:04:55.378Z,3.58
2022-08-03T22:07:02.557Z,3.78
2022-08-03T22:09:08.664Z,3.40
2022-08-03T22:11:13.222Z,3.45
2022-08-03T22:13:43.970Z,4.00
2022-08-03T22:15:44.248Z,3.63
2022-08-03T22:17:54.957Z,4.20
2022-08-03T22:20:01.589Z,3.65
2022-08-03T22:22:13.944Z,3.80
2022-08-03T22:24:23.961Z,3.97
2022-08-03T22:26:35.248Z,3.75
2022-08-03T22:28:40.355Z,3.42
2022-08-03T22:30:44.830Z,3.72
2022-08-03T22:32:53.074Z,4.32
2022-08-03T22:34:58.251Z,4.20
2022-08-03T22:37:05.803Z,3.83
2022-08-03T22:39:12.760Z,4.38
2022-08-03T22:41:30.827Z,4.35
2022-08-03T22:43:37.041Z,5.05
2022-08-03T22:46:09.220Z,4.68
2022-08-03T22:48:09.864Z,4.18
2022-08-03T22:50:32.344Z,3.97
2022-08-03T22:52:39.579Z,4.75
2022-08-03T22:54:46.134Z,4.30
2022-08-03T22:56:51.806Z,4.60
2022-08-03T22:58:56.070Z,4.68
2022-08-03T23:01:04.949Z,5.03
2022-08-03T23:03:09.971Z,3.93
2022-08-03T23:06:00.304Z,4.90
2022-08-03T23:07:42.715Z,4.72
2022-08-03T23:09:50.092Z,4.30
2022-08-03T23:11:57.198Z,4.75
2022-08-03T23:14:07.558Z,5.22
2022-08-03T23:16:12.645Z,5.07
2022-08-03T23:18:17.068Z,6.00
2022-08-03T23:20:22.238Z,5.10
2022-08-03T23:22:31.277Z,5.32
2022-08-03T23:24:37.057Z,5.20
2022-08-03T23:26:43.939Z,4.97
2022-08-03T23:28:49.460Z,5.10
2022-08-03T23:30:55.166Z,4.80
2022-08-03T23:33:04.073Z,4.82
2022-08-03T23:36:20.090Z,4.88
2022-08-03T23:38:03.947Z,5.43
2022-08-03T23:40:17.259Z,5.18
2022-08-03T23:42:23.163Z,4.90
2022-08-03T23:44:30.934Z,4.72
2022-08-03T23:46:37.148Z,4.78
2022-08-03T23:48:41.416Z,4.30
2022-08-03T23:50:50.187Z,4.85
2022-08-03T23:53:00.893Z,4.43
2022-08-03T23:55:17.408Z,4.60
2022-08-03T23:57:33.991Z,4.40
2022-08-03T23:59:48.689Z,4.60
